VVTS Airport Information

Runway Information
Runway 07L Length 10000 ft width 148 ft
Elevation 24 ft Threshold 0 ft Heading 69
Runway 25R Length 10000 ft Width 148 ft
Elevation 32 ft Threshold 0 ft Heading 249
Runway 07R Length 12468 ft width 148 ft
Elevation 24 ft Threshold 2431 ft Heading 69
Runway 25L Length 12468 ft Width 148 ft
Elevation 32 ft Threshold 0 ft Heading 249
Airport Frequencies
Type APP Name APP Frequency 125.5 MHZ
Type ATIS Name ATIS Frequency 128 MHZ
Type GND Name GND Frequency 121.9 MHZ
Type TWR Name TWR Frequency 118.7 MHZ
Airport Navaids
Type NDB Name Tansonnhat Frequency 343 KHZ
Type NDB Name Tansonnhat Frequency 375 KHZ
Type NDB Name Tansonnhat Frequency 326 KHZ
Type NDB Name Tansonnhat Frequency 358 KHZ
Type VOR-DME Name Tansonnhat Frequency 116700 KHZ
Airport Weather Information & NOTAM
ADDS - METARS form results

(1025 UTC 26 January 2022)
Data provider http://aviationweather.gov/metar/data/
 
METAR text: VVTS 261000Z VRB02KT 7000 -SHRA SCT015 FEW017CB SCT050 27/24 Q1008 NOSIG RMK CB OVER RWY
Conditions at: VVTS (HO CHI MINH/TANS, VN) observed 1000 UTC 26 January 2022
Temperature: 27.0°C (81°F)
Dewpoint: 24.0°C (75°F) [RH = 84%]
Pressure (altimeter): 29.76 inches Hg (1008.0 mb)
Winds: variable direction winds at 2 MPH (2 knots; 1.0 m/s)
Visibility: 4 miles ( 7 km)
Ceiling: at least 12,000 feet AGL
Clouds: scattered clouds at 1500 feet AGL
few clouds at 1700 feet AGL
scattered clouds at 5000 feet AGL
Weather: -SHRA  (light rain showers)

METAR text: VVTS 260930Z 19013KT 5000 SHRA SCT015 SCT017CB 26/25 Q1008 TEMPO TL0940 18015G25KT 5000 TSRA RMK CB OVER RWY
Conditions at: VVTS (HO CHI MINH/TANS, VN) observed 0930 UTC 26 January 2022
Temperature: 26.0°C (79°F)
Dewpoint: 25.0°C (77°F) [RH = 94%]
Pressure (altimeter): 29.76 inches Hg (1008.0 mb)
Winds: from the S (190 degrees) at 15 MPH (13 knots; 6.7 m/s)
Visibility: 3 miles ( 5 km)
Ceiling: at least 12,000 feet AGL
Clouds: scattered clouds at 1500 feet AGL
scattered clouds at 1700 feet AGL
Weather: SHRA  (rain showers)

Forecast for: AMD
Text: TAF AMD VVTS 260913Z 2609/2712 17010KT 9999 SCT017 SCT040
Forecast period: 0900 UTC 26 January 2022 to 1200 UTC 27 January 2022
Forecast type: FROM: standard forecast or significant change
Winds: from the S (170 degrees) at 12 MPH (10 knots; 5.1 m/s)
Visibility: 6 or more miles (10+ km)
Ceiling: at least 12,000 feet AGL
Clouds: scattered clouds at 1700 feet AGL
scattered clouds at 4000 feet AGL
Weather: no significant weather forecast for this period
Text: TEMPO 2609/2611 17015G25KT 1500 +TSRA BKN013 SCT015CB
Forecast period: 0900 to 1100 UTC 26 January 2022
Forecast type: TEMPORARY: The following changes expected for less than half the time period
Winds: from the S (170 degrees) at 17 MPH (15 knots; 7.7 m/s)
gusting to 29 MPH (25 knots; 12.9 m/s)
Visibility: 0.93 miles (1.50 km)
Ceiling: 1300 feet AGL
Clouds: broken clouds at 1300 feet AGL
scattered clouds at 1500 feet AGL
Weather: +TSRA  (heavy rain associated with thunderstorm(s))